sensor_id;sensor_type;location;lat;lon;timestamp;P1;durP1;ratioP1;P2;durP2;ratioP2
10311;SDS011;5201;48.776;9.128;2022-10-16T00:00:32;2.50;;;0.70;;
10311;SDS011;5201;48.776;9.128;2022-10-16T00:02:59;1.97;;;0.60;;
10311;SDS011;5201;48.776;9.128;2022-10-16T00:05:24;3.07;;;0.87;;
10311;SDS011;5201;48.776;9.128;2022-10-16T00:07:50;3.47;;;0.70;;
10311;SDS011;5201;48.776;9.128;2022-10-16T00:10:16;4.07;;;0.70;;
10311;SDS011;5201;48.776;9.128;2022-10-16T00:12:41;4.57;;;0.70;;
10311;SDS011;5201;48.776;9.128;2022-10-16T00:15:07;3.40;;;0.60;;
10311;SDS011;5201;48.776;9.128;2022-10-16T00:17:33;1.80;;;0.60;;
10311;SDS011;5201;48.776;9.128;2022-10-16T00:19:58;0.40;;;0.40;;
10311;SDS011;5201;48.776;9.128;2022-10-16T00:22:24;3.60;;;0.60;;
10311;SDS011;5201;48.776;9.128;2022-10-16T00:24:50;0.50;;;0.50;;
10311;SDS011;5201;48.776;9.128;2022-10-16T00:27:15;0.73;;;0.60;;
10311;SDS011;5201;48.776;9.128;2022-10-16T00:29:41;1.87;;;1.70;;
10311;SDS011;5201;48.776;9.128;2022-10-16T00:32:07;1.50;;;0.53;;
10311;SDS011;5201;48.776;9.128;2022-10-16T00:34:33;0.93;;;0.60;;
10311;SDS011;5201;48.776;9.128;2022-10-16T00:36:59;6.53;;;0.87;;
10311;SDS011;5201;48.776;9.128;2022-10-16T00:39:24;1.20;;;0.60;;
10311;SDS011;5201;48.776;9.128;2022-10-16T00:41:50;1.43;;;0.70;;
10311;SDS011;5201;48.776;9.128;2022-10-16T00:47:08;8.10;;;0.83;;
10311;SDS011;5201;48.776;9.128;2022-10-16T00:49:35;4.70;;;0.50;;
10311;SDS011;5201;48.776;9.128;2022-10-16T00:52:01;2.87;;;0.67;;
10311;SDS011;5201;48.776;9.128;2022-10-16T00:54:28;4.40;;;0.53;;
10311;SDS011;5201;48.776;9.128;2022-10-16T00:56:56;2.63;;;0.53;;
10311;SDS011;5201;48.776;9.128;2022-10-16T00:59:27;0.93;;;0.70;;
10311;SDS011;5201;48.776;9.128;2022-10-16T01:01:57;2.90;;;0.60;;
10311;SDS011;5201;48.776;9.128;2022-10-16T01:04:25;2.27;;;0.60;;
10311;SDS011;5201;48.776;9.128;2022-10-16T01:09:29;8.03;;;0.70;;
10311;SDS011;5201;48.776;9.128;2022-10-16T01:12:15;0.50;;;0.50;;
10311;SDS011;5201;48.776;9.128;2022-10-16T01:14:55;3.73;;;0.57;;
10311;SDS011;5201;48.776;9.128;2022-10-16T01:17:49;0.87;;;0.60;;
10311;SDS011;5201;48.776;9.128;2022-10-16T01:20:31;0.57;;;0.50;;
10311;SDS011;5201;48.776;9.128;2022-10-16T01:26:08;0.50;;;0.50;;
10311;SDS011;5201;48.776;9.128;2022-10-16T01:28:52;2.70;;;0.60;;
10311;SDS011;5201;48.776;9.128;2022-10-16T01:31:22;0.80;;;0.40;;
10311;SDS011;5201;48.776;9.128;2022-10-16T01:33:53;0.73;;;0.60;;
10311;SDS011;5201;48.776;9.128;2022-10-16T01:36:24;3.03;;;0.90;;
10311;SDS011;5201;48.776;9.128;2022-10-16T01:38:54;3.30;;;0.43;;
10311;SDS011;5201;48.776;9.128;2022-10-16T01:41:27;4.13;;;0.70;;
10311;SDS011;5201;48.776;9.128;2022-10-16T01:44:06;0.87;;;0.30;;
10311;SDS011;5201;48.776;9.128;2022-10-16T01:46:39;2.40;;;0.47;;
10311;SDS011;5201;48.776;9.128;2022-10-16T01:49:07;0.50;;;0.50;;
10311;SDS011;5201;48.776;9.128;2022-10-16T01:51:35;0.93;;;0.60;;
10311;SDS011;5201;48.776;9.128;2022-10-16T01:54:02;0.40;;;0.40;;
10311;SDS011;5201;48.776;9.128;2022-10-16T01:56:29;0.50;;;0.50;;
10311;SDS011;5201;48.776;9.128;2022-10-16T01:59:06;0.43;;;0.43;;
10311;SDS011;5201;48.776;9.128;2022-10-16T02:01:36;1.23;;;0.40;;
10311;SDS011;5201;48.776;9.128;2022-10-16T02:04:24;1.90;;;0.50;;
10311;SDS011;5201;48.776;9.128;2022-10-16T02:07:00;1.73;;;0.50;;
10311;SDS011;5201;48.776;9.128;2022-10-16T02:09:26;1.43;;;0.67;;
10311;SDS011;5201;48.776;9.128;2022-10-16T02:11:55;0.80;;;0.70;;
10311;SDS011;5201;48.776;9.128;2022-10-16T02:14:22;0.80;;;0.60;;
10311;SDS011;5201;48.776;9.128;2022-10-16T02:16:49;3.13;;;0.60;;
10311;SDS011;5201;48.776;9.128;2022-10-16T02:19:16;0.60;;;0.50;;
10311;SDS011;5201;48.776;9.128;2022-10-16T02:21:56;1.17;;;0.70;;
10311;SDS011;5201;48.776;9.128;2022-10-16T02:24:30;2.50;;;0.70;;
10311;SDS011;5201;48.776;9.128;2022-10-16T02:27:11;3.43;;;0.60;;
10311;SDS011;5201;48.776;9.128;2022-10-16T02:29:43;0.57;;;0.57;;
10311;SDS011;5201;48.776;9.128;2022-10-16T02:32:15;6.60;;;0.70;;
10311;SDS011;5201;48.776;9.128;2022-10-16T02:34:45;5.63;;;0.63;;
10311;SDS011;5201;48.776;9.128;2022-10-16T02:37:13;0.67;;;0.67;;
10311;SDS011;5201;48.776;9.128;2022-10-16T02:39:39;0.70;;;0.70;;
10311;SDS011;5201;48.776;9.128;2022-10-16T02:42:10;0.80;;;0.60;;
10311;SDS011;5201;48.776;9.128;2022-10-16T02:44:39;0.73;;;0.50;;
10311;SDS011;5201;48.776;9.128;2022-10-16T02:47:04;2.73;;;0.77;;
10311;SDS011;5201;48.776;9.128;2022-10-16T02:49:30;0.90;;;0.80;;
10311;SDS011;5201;48.776;9.128;2022-10-16T02:51:55;3.80;;;0.57;;
10311;SDS011;5201;48.776;9.128;2022-10-16T02:54:21;1.33;;;0.60;;
10311;SDS011;5201;48.776;9.128;2022-10-16T02:56:46;1.70;;;0.60;;
10311;SDS011;5201;48.776;9.128;2022-10-16T02:59:12;1.63;;;0.57;;
10311;SDS011;5201;48.776;9.128;2022-10-16T03:01:38;4.20;;;0.60;;
10311;SDS011;5201;48.776;9.128;2022-10-16T03:04:03;2.23;;;0.70;;
10311;SDS011;5201;48.776;9.128;2022-10-16T03:06:29;14.00;;;1.27;;
10311;SDS011;5201;48.776;9.128;2022-10-16T03:08:54;1.07;;;0.60;;
10311;SDS011;5201;48.776;9.128;2022-10-16T03:11:20;0.70;;;0.60;;
10311;SDS011;5201;48.776;9.128;2022-10-16T03:13:45;0.60;;;0.50;;
10311;SDS011;5201;48.776;9.128;2022-10-16T03:16:11;0.47;;;0.47;;
10311;SDS011;5201;48.776;9.128;2022-10-16T03:18:37;1.10;;;0.60;;
10311;SDS011;5201;48.776;9.128;2022-10-16T03:21:02;4.00;;;0.63;;
10311;SDS011;5201;48.776;9.128;2022-10-16T03:23:28;0.60;;;0.60;;
10311;SDS011;5201;48.776;9.128;2022-10-16T03:25:53;2.57;;;0.60;;
10311;SDS011;5201;48.776;9.128;2022-10-16T03:28:19;0.50;;;0.50;;
10311;SDS011;5201;48.776;9.128;2022-10-16T03:30:45;1.90;;;0.50;;
10311;SDS011;5201;48.776;9.128;2022-10-16T03:33:10;1.73;;;0.40;;
10311;SDS011;5201;48.776;9.128;2022-10-16T03:35:36;0.60;;;0.43;;
10311;SDS011;5201;48.776;9.128;2022-10-16T03:38:01;3.63;;;0.70;;
10311;SDS011;5201;48.776;9.128;2022-10-16T03:40:27;0.90;;;0.60;;
10311;SDS011;5201;48.776;9.128;2022-10-16T03:42:53;2.13;;;0.60;;
10311;SDS011;5201;48.776;9.128;2022-10-16T03:45:22;3.33;;;0.60;;
10311;SDS011;5201;48.776;9.128;2022-10-16T03:47:48;1.43;;;0.50;;
10311;SDS011;5201;48.776;9.128;2022-10-16T03:50:14;0.80;;;0.47;;
10311;SDS011;5201;48.776;9.128;2022-10-16T03:52:39;4.97;;;0.60;;
10311;SDS011;5201;48.776;9.128;2022-10-16T03:55:05;0.50;;;0.50;;
10311;SDS011;5201;48.776;9.128;2022-10-16T03:57:31;1.20;;;0.60;;
10311;SDS011;5201;48.776;9.128;2022-10-16T03:59:57;0.53;;;0.53;;
10311;SDS011;5201;48.776;9.128;2022-10-16T04:02:22;1.03;;;0.50;;
10311;SDS011;5201;48.776;9.128;2022-10-16T04:04:48;4.10;;;0.60;;
10311;SDS011;5201;48.776;9.128;2022-10-16T04:07:14;2.30;;;0.50;;
10311;SDS011;5201;48.776;9.128;2022-10-16T04:09:39;3.30;;;0.60;;
10311;SDS011;5201;48.776;9.128;2022-10-16T04:12:05;0.60;;;0.50;;
10311;SDS011;5201;48.776;9.128;2022-10-16T04:14:31;3.67;;;0.47;;
10311;SDS011;5201;48.776;9.128;2022-10-16T04:16:56;0.77;;;0.50;;
10311;SDS011;5201;48.776;9.128;2022-10-16T04:19:22;5.00;;;0.40;;
10311;SDS011;5201;48.776;9.128;2022-10-16T04:21:47;0.90;;;0.57;;
10311;SDS011;5201;48.776;9.128;2022-10-16T04:24:13;0.90;;;0.77;;
10311;SDS011;5201;48.776;9.128;2022-10-16T04:26:38;5.63;;;0.60;;
10311;SDS011;5201;48.776;9.128;2022-10-16T04:29:04;1.80;;;0.60;;
10311;SDS011;5201;48.776;9.128;2022-10-16T04:31:31;3.53;;;0.60;;
10311;SDS011;5201;48.776;9.128;2022-10-16T04:33:56;2.50;;;0.60;;
10311;SDS011;5201;48.776;9.128;2022-10-16T04:36:22;0.90;;;0.60;;
10311;SDS011;5201;48.776;9.128;2022-10-16T04:38:47;1.13;;;0.50;;
10311;SDS011;5201;48.776;9.128;2022-10-16T04:41:13;0.50;;;0.50;;
10311;SDS011;5201;48.776;9.128;2022-10-16T04:43:38;0.57;;;0.57;;
10311;SDS011;5201;48.776;9.128;2022-10-16T04:46:04;2.57;;;0.63;;
10311;SDS011;5201;48.776;9.128;2022-10-16T04:48:30;0.50;;;0.50;;
10311;SDS011;5201;48.776;9.128;2022-10-16T04:50:56;1.23;;;0.60;;
10311;SDS011;5201;48.776;9.128;2022-10-16T04:53:21;3.57;;;0.70;;
10311;SDS011;5201;48.776;9.128;2022-10-16T04:55:47;0.60;;;0.60;;
10311;SDS011;5201;48.776;9.128;2022-10-16T04:58:13;3.77;;;0.70;;
10311;SDS011;5201;48.776;9.128;2022-10-16T05:00:38;4.63;;;0.60;;
10311;SDS011;5201;48.776;9.128;2022-10-16T05:03:04;1.90;;;0.63;;
10311;SDS011;5201;48.776;9.128;2022-10-16T05:05:33;10.37;;;0.67;;
10311;SDS011;5201;48.776;9.128;2022-10-16T05:07:59;1.63;;;0.50;;
10311;SDS011;5201;48.776;9.128;2022-10-16T05:10:24;3.90;;;0.70;;
10311;SDS011;5201;48.776;9.128;2022-10-16T05:12:50;1.80;;;0.40;;
10311;SDS011;5201;48.776;9.128;2022-10-16T05:15:16;0.70;;;0.40;;
10311;SDS011;5201;48.776;9.128;2022-10-16T05:17:42;4.30;;;0.70;;
10311;SDS011;5201;48.776;9.128;2022-10-16T05:20:08;1.40;;;0.53;;
10311;SDS011;5201;48.776;9.128;2022-10-16T05:22:33;0.90;;;0.63;;
10311;SDS011;5201;48.776;9.128;2022-10-16T05:24:59;2.00;;;0.80;;
10311;SDS011;5201;48.776;9.128;2022-10-16T05:27:24;2.07;;;0.70;;
10311;SDS011;5201;48.776;9.128;2022-10-16T05:29:50;2.30;;;0.70;;
10311;SDS011;5201;48.776;9.128;2022-10-16T05:32:16;2.50;;;0.60;;
10311;SDS011;5201;48.776;9.128;2022-10-16T05:34:42;0.73;;;0.67;;
10311;SDS011;5201;48.776;9.128;2022-10-16T05:37:08;1.00;;;0.50;;
10311;SDS011;5201;48.776;9.128;2022-10-16T05:39:34;3.97;;;0.80;;
10311;SDS011;5201;48.776;9.128;2022-10-16T05:42:01;2.00;;;0.60;;
10311;SDS011;5201;48.776;9.128;2022-10-16T05:44:27;0.80;;;0.50;;
10311;SDS011;5201;48.776;9.128;2022-10-16T05:46:52;0.43;;;0.40;;
10311;SDS011;5201;48.776;9.128;2022-10-16T05:49:18;0.40;;;0.40;;
10311;SDS011;5201;48.776;9.128;2022-10-16T05:51:44;3.63;;;0.67;;
10311;SDS011;5201;48.776;9.128;2022-10-16T05:54:09;0.77;;;0.50;;
10311;SDS011;5201;48.776;9.128;2022-10-16T05:56:35;1.03;;;0.60;;
10311;SDS011;5201;48.776;9.128;2022-10-16T05:59:00;2.60;;;0.93;;
10311;SDS011;5201;48.776;9.128;2022-10-16T06:01:27;1.80;;;0.60;;
10311;SDS011;5201;48.776;9.128;2022-10-16T06:03:53;2.00;;;0.70;;
10311;SDS011;5201;48.776;9.128;2022-10-16T06:06:19;0.53;;;0.50;;
10311;SDS011;5201;48.776;9.128;2022-10-16T06:08:46;0.50;;;0.50;;
10311;SDS011;5201;48.776;9.128;2022-10-16T06:11:14;2.07;;;0.70;;
10311;SDS011;5201;48.776;9.128;2022-10-16T06:13:54;4.33;;;0.50;;
10311;SDS011;5201;48.776;9.128;2022-10-16T06:16:22;0.50;;;0.50;;
10311;SDS011;5201;48.776;9.128;2022-10-16T06:18:50;4.33;;;0.70;;
10311;SDS011;5201;48.776;9.128;2022-10-16T06:21:17;3.57;;;0.60;;
10311;SDS011;5201;48.776;9.128;2022-10-16T06:23:45;1.10;;;0.57;;
10311;SDS011;5201;48.776;9.128;2022-10-16T06:26:13;9.87;;;1.00;;
10311;SDS011;5201;48.776;9.128;2022-10-16T06:28:40;1.17;;;0.87;;
10311;SDS011;5201;48.776;9.128;2022-10-16T06:31:07;5.53;;;0.83;;
10311;SDS011;5201;48.776;9.128;2022-10-16T06:33:34;3.27;;;0.80;;
10311;SDS011;5201;48.776;9.128;2022-10-16T06:36:01;4.80;;;0.63;;
10311;SDS011;5201;48.776;9.128;2022-10-16T06:38:29;4.20;;;0.50;;
10311;SDS011;5201;48.776;9.128;2022-10-16T06:40:55;2.33;;;0.80;;
10311;SDS011;5201;48.776;9.128;2022-10-16T06:43:21;3.70;;;0.60;;
10311;SDS011;5201;48.776;9.128;2022-10-16T06:45:53;2.00;;;0.50;;
10311;SDS011;5201;48.776;9.128;2022-10-16T06:48:20;0.67;;;0.60;;
10311;SDS011;5201;48.776;9.128;2022-10-16T06:50:54;3.37;;;0.40;;
10311;SDS011;5201;48.776;9.128;2022-10-16T06:53:23;1.90;;;0.83;;
10311;SDS011;5201;48.776;9.128;2022-10-16T06:55:49;0.97;;;0.70;;
10311;SDS011;5201;48.776;9.128;2022-10-16T06:58:14;2.27;;;0.67;;
10311;SDS011;5201;48.776;9.128;2022-10-16T07:00:40;1.67;;;0.60;;
10311;SDS011;5201;48.776;9.128;2022-10-16T07:03:05;1.57;;;0.50;;
10311;SDS011;5201;48.776;9.128;2022-10-16T07:05:31;4.93;;;0.50;;
10311;SDS011;5201;48.776;9.128;2022-10-16T07:07:57;2.40;;;0.60;;
10311;SDS011;5201;48.776;9.128;2022-10-16T07:10:22;1.33;;;0.70;;
10311;SDS011;5201;48.776;9.128;2022-10-16T07:12:50;3.57;;;1.83;;
10311;SDS011;5201;48.776;9.128;2022-10-16T07:15:16;1.13;;;0.70;;
10311;SDS011;5201;48.776;9.128;2022-10-16T07:17:42;3.53;;;0.60;;
10311;SDS011;5201;48.776;9.128;2022-10-16T07:20:07;2.10;;;0.87;;
10311;SDS011;5201;48.776;9.128;2022-10-16T07:22:33;2.10;;;1.03;;
10311;SDS011;5201;48.776;9.128;2022-10-16T07:24:59;3.70;;;0.93;;
10311;SDS011;5201;48.776;9.128;2022-10-16T07:27:24;5.87;;;1.00;;
10311;SDS011;5201;48.776;9.128;2022-10-16T07:29:51;3.47;;;0.90;;
10311;SDS011;5201;48.776;9.128;2022-10-16T07:32:16;3.23;;;0.70;;
10311;SDS011;5201;48.776;9.128;2022-10-16T07:34:42;2.23;;;0.90;;
10311;SDS011;5201;48.776;9.128;2022-10-16T07:37:07;6.73;;;0.87;;
10311;SDS011;5201;48.776;9.128;2022-10-16T07:39:33;2.17;;;0.60;;
10311;SDS011;5201;48.776;9.128;2022-10-16T07:41:59;0.90;;;0.80;;
10311;SDS011;5201;48.776;9.128;2022-10-16T07:44:24;5.50;;;0.60;;
10311;SDS011;5201;48.776;9.128;2022-10-16T07:46:50;2.80;;;0.67;;
10311;SDS011;5201;48.776;9.128;2022-10-16T07:49:15;1.53;;;0.63;;
10311;SDS011;5201;48.776;9.128;2022-10-16T07:51:41;3.13;;;0.70;;
10311;SDS011;5201;48.776;9.128;2022-10-16T07:54:08;3.00;;;0.70;;
10311;SDS011;5201;48.776;9.128;2022-10-16T07:56:34;0.60;;;0.60;;
10311;SDS011;5201;48.776;9.128;2022-10-16T07:59:00;2.90;;;0.60;;
10311;SDS011;5201;48.776;9.128;2022-10-16T08:01:25;0.93;;;0.47;;
10311;SDS011;5201;48.776;9.128;2022-10-16T08:03:51;0.60;;;0.50;;
10311;SDS011;5201;48.776;9.128;2022-10-16T08:06:18;2.37;;;0.53;;
10311;SDS011;5201;48.776;9.128;2022-10-16T08:08:44;3.73;;;0.67;;
10311;SDS011;5201;48.776;9.128;2022-10-16T08:11:10;0.50;;;0.50;;
10311;SDS011;5201;48.776;9.128;2022-10-16T08:13:36;2.97;;;0.40;;
10311;SDS011;5201;48.776;9.128;2022-10-16T08:16:01;1.53;;;0.53;;
10311;SDS011;5201;48.776;9.128;2022-10-16T08:18:32;0.57;;;0.57;;
10311;SDS011;5201;48.776;9.128;2022-10-16T08:21:05;4.93;;;0.50;;
10311;SDS011;5201;48.776;9.128;2022-10-16T08:23:32;0.57;;;0.50;;
10311;SDS011;5201;48.776;9.128;2022-10-16T08:26:02;0.97;;;0.60;;
10311;SDS011;5201;48.776;9.128;2022-10-16T08:28:29;3.20;;;0.60;;
10311;SDS011;5201;48.776;9.128;2022-10-16T08:30:55;3.73;;;0.70;;
10311;SDS011;5201;48.776;9.128;2022-10-16T08:33:21;0.63;;;0.40;;
10311;SDS011;5201;48.776;9.128;2022-10-16T08:35:53;3.47;;;0.57;;
10311;SDS011;5201;48.776;9.128;2022-10-16T08:38:19;4.30;;;0.60;;
10311;SDS011;5201;48.776;9.128;2022-10-16T08:40:45;2.60;;;0.60;;
10311;SDS011;5201;48.776;9.128;2022-10-16T08:48:53;1.27;;;0.70;;
10311;SDS011;5201;48.776;9.128;2022-10-16T08:53:53;2.40;;;0.60;;
10311;SDS011;5201;48.776;9.128;2022-10-16T08:56:24;0.70;;;0.50;;
10311;SDS011;5201;48.776;9.128;2022-10-16T08:58:50;0.50;;;0.50;;
10311;SDS011;5201;48.776;9.128;2022-10-16T09:01:17;3.50;;;1.00;;
10311;SDS011;5201;48.776;9.128;2022-10-16T09:06:38;2.80;;;0.80;;
10311;SDS011;5201;48.776;9.128;2022-10-16T09:12:00;0.57;;;0.50;;
10311;SDS011;5201;48.776;9.128;2022-10-16T09:14:52;0.63;;;0.50;;
10311;SDS011;5201;48.776;9.128;2022-10-16T09:23:12;1.93;;;0.50;;
10311;SDS011;5201;48.776;9.128;2022-10-16T09:25:42;4.23;;;0.70;;
10311;SDS011;5201;48.776;9.128;2022-10-16T09:28:10;2.00;;;0.70;;
10311;SDS011;5201;48.776;9.128;2022-10-16T09:30:36;2.30;;;0.50;;
10311;SDS011;5201;48.776;9.128;2022-10-16T09:33:03;0.60;;;0.60;;
10311;SDS011;5201;48.776;9.128;2022-10-16T09:35:35;0.60;;;0.37;;
10311;SDS011;5201;48.776;9.128;2022-10-16T09:38:08;0.70;;;0.50;;
10311;SDS011;5201;48.776;9.128;2022-10-16T09:40:38;5.83;;;0.50;;
10311;SDS011;5201;48.776;9.128;2022-10-16T09:45:57;2.33;;;0.30;;
10311;SDS011;5201;48.776;9.128;2022-10-16T09:48:59;0.73;;;0.40;;
10311;SDS011;5201;48.776;9.128;2022-10-16T09:53:59;0.67;;;0.47;;
10311;SDS011;5201;48.776;9.128;2022-10-16T09:56:30;4.00;;;0.53;;
10311;SDS011;5201;48.776;9.128;2022-10-16T09:58:58;3.97;;;0.50;;
10311;SDS011;5201;48.776;9.128;2022-10-16T10:01:44;4.17;;;0.70;;
10311;SDS011;5201;48.776;9.128;2022-10-16T10:04:14;1.53;;;0.30;;
10311;SDS011;5201;48.776;9.128;2022-10-16T10:06:43;2.27;;;0.50;;
10311;SDS011;5201;48.776;9.128;2022-10-16T10:09:19;3.17;;;0.40;;
10311;SDS011;5201;48.776;9.128;2022-10-16T10:11:55;0.87;;;0.50;;
10311;SDS011;5201;48.776;9.128;2022-10-16T10:14:26;1.23;;;0.30;;
10311;SDS011;5201;48.776;9.128;2022-10-16T10:19:43;2.40;;;0.60;;
10311;SDS011;5201;48.776;9.128;2022-10-16T10:22:24;3.40;;;0.60;;
10311;SDS011;5201;48.776;9.128;2022-10-16T10:30:27;1.25;;;0.50;;
10311;SDS011;5201;48.776;9.128;2022-10-16T10:35:56;0.95;;;0.40;;
10311;SDS011;5201;48.776;9.128;2022-10-16T10:45:11;3.13;;;0.50;;
10311;SDS011;5201;48.776;9.128;2022-10-16T10:50:32;1.67;;;0.50;;
10311;SDS011;5201;48.776;9.128;2022-10-16T10:58:46;2.13;;;0.50;;
10311;SDS011;5201;48.776;9.128;2022-10-16T11:01:26;5.53;;;0.80;;
10311;SDS011;5201;48.776;9.128;2022-10-16T11:03:59;1.88;;;0.50;;
10311;SDS011;5201;48.776;9.128;2022-10-16T11:06:42;0.95;;;0.38;;
10311;SDS011;5201;48.776;9.128;2022-10-16T11:11:40;3.78;;;0.52;;
10311;SDS011;5201;48.776;9.128;2022-10-16T11:14:19;3.83;;;0.52;;
10311;SDS011;5201;48.776;9.128;2022-10-16T11:16:51;2.05;;;0.63;;
10311;SDS011;5201;48.776;9.128;2022-10-16T11:19:39;12.20;;;1.02;;
10311;SDS011;5201;48.776;9.128;2022-10-16T11:22:13;0.47;;;0.47;;
10311;SDS011;5201;48.776;9.128;2022-10-16T11:25:43;6.00;;;0.80;;
10311;SDS011;5201;48.776;9.128;2022-10-16T11:27:57;5.82;;;0.52;;
10311;SDS011;5201;48.776;9.128;2022-10-16T11:30:31;3.10;;;0.45;;
10311;SDS011;5201;48.776;9.128;2022-10-16T11:35:44;1.08;;;0.55;;
10311;SDS011;5201;48.776;9.128;2022-10-16T11:38:36;1.20;;;0.70;;
10311;SDS011;5201;48.776;9.128;2022-10-16T11:41:01;1.05;;;0.40;;
10311;SDS011;5201;48.776;9.128;2022-10-16T11:43:37;0.30;;;0.30;;
10311;SDS011;5201;48.776;9.128;2022-10-16T11:46:10;9.95;;;0.70;;
10311;SDS011;5201;48.776;9.128;2022-10-16T11:48:46;2.30;;;0.40;;
10311;SDS011;5201;48.776;9.128;2022-10-16T11:57:09;3.53;;;0.77;;
10311;SDS011;5201;48.776;9.128;2022-10-16T11:59:58;3.10;;;0.55;;
10311;SDS011;5201;48.776;9.128;2022-10-16T12:02:40;1.52;;;0.52;;
10311;SDS011;5201;48.776;9.128;2022-10-16T12:05:24;1.98;;;0.38;;
10311;SDS011;5201;48.776;9.128;2022-10-16T12:08:14;1.05;;;0.45;;
10311;SDS011;5201;48.776;9.128;2022-10-16T12:10:43;1.42;;;0.52;;
10311;SDS011;5201;48.776;9.128;2022-10-16T12:18:38;0.88;;;0.40;;
10311;SDS011;5201;48.776;9.128;2022-10-16T12:21:09;1.05;;;0.60;;
10311;SDS011;5201;48.776;9.128;2022-10-16T12:23:39;2.10;;;0.43;;
10311;SDS011;5201;48.776;9.128;2022-10-16T12:26:13;7.85;;;0.63;;
10311;SDS011;5201;48.776;9.128;2022-10-16T12:28:39;1.65;;;0.40;;
10311;SDS011;5201;48.776;9.128;2022-10-16T12:31:06;3.55;;;0.60;;
10311;SDS011;5201;48.776;9.128;2022-10-16T12:33:35;1.95;;;0.40;;
10311;SDS011;5201;48.776;9.128;2022-10-16T12:36:05;1.75;;;0.75;;
10311;SDS011;5201;48.776;9.128;2022-10-16T12:38:52;1.75;;;0.77;;
10311;SDS011;5201;48.776;9.128;2022-10-16T12:41:39;4.65;;;0.55;;
10311;SDS011;5201;48.776;9.128;2022-10-16T12:44:04;1.13;;;0.50;;
10311;SDS011;5201;48.776;9.128;2022-10-16T12:46:46;0.63;;;0.40;;
10311;SDS011;5201;48.776;9.128;2022-10-16T12:51:37;2.63;;;0.40;;
10311;SDS011;5201;48.776;9.128;2022-10-16T12:54:05;0.70;;;0.50;;
10311;SDS011;5201;48.776;9.128;2022-10-16T13:23:58;1.23;;;1.00;;
10311;SDS011;5201;48.776;9.128;2022-10-16T13:26:56;4.80;;;0.90;;
10311;SDS011;5201;48.776;9.128;2022-10-16T13:29:31;1.90;;;0.70;;
10311;SDS011;5201;48.776;9.128;2022-10-16T13:31:58;1.58;;;0.63;;
10311;SDS011;5201;48.776;9.128;2022-10-16T13:34:32;0.50;;;0.50;;
10311;SDS011;5201;48.776;9.128;2022-10-16T13:37:15;5.85;;;0.60;;
10311;SDS011;5201;48.776;9.128;2022-10-16T13:39:46;2.55;;;0.40;;
10311;SDS011;5201;48.776;9.128;2022-10-16T13:42:14;2.70;;;1.00;;
10311;SDS011;5201;48.776;9.128;2022-10-16T13:44:48;0.68;;;0.68;;
10311;SDS011;5201;48.776;9.128;2022-10-16T13:47:17;0.93;;;0.60;;
10311;SDS011;5201;48.776;9.128;2022-10-16T13:49:44;2.65;;;0.45;;
10311;SDS011;5201;48.776;9.128;2022-10-16T13:52:17;0.50;;;0.50;;
10311;SDS011;5201;48.776;9.128;2022-10-16T13:54:44;0.57;;;0.57;;
10311;SDS011;5201;48.776;9.128;2022-10-16T13:57:14;0.70;;;0.60;;
10311;SDS011;5201;48.776;9.128;2022-10-16T13:59:40;2.95;;;0.80;;
10311;SDS011;5201;48.776;9.128;2022-10-16T14:02:20;0.52;;;0.52;;
10311;SDS011;5201;48.776;9.128;2022-10-16T14:04:52;2.97;;;0.70;;
10311;SDS011;5201;48.776;9.128;2022-10-16T14:07:21;4.28;;;0.60;;
10311;SDS011;5201;48.776;9.128;2022-10-16T14:09:50;2.83;;;0.60;;
10311;SDS011;5201;48.776;9.128;2022-10-16T14:12:17;3.80;;;0.60;;
10311;SDS011;5201;48.776;9.128;2022-10-16T14:14:43;1.00;;;0.80;;
10311;SDS011;5201;48.776;9.128;2022-10-16T14:17:27;1.95;;;0.55;;
10311;SDS011;5201;48.776;9.128;2022-10-16T14:19:56;2.95;;;1.05;;
10311;SDS011;5201;48.776;9.128;2022-10-16T14:22:33;6.93;;;1.30;;
10311;SDS011;5201;48.776;9.128;2022-10-16T14:24:59;2.33;;;1.10;;
10311;SDS011;5201;48.776;9.128;2022-10-16T14:27:30;1.15;;;1.00;;
10311;SDS011;5201;48.776;9.128;2022-10-16T14:30:12;1.73;;;0.80;;
10311;SDS011;5201;48.776;9.128;2022-10-16T14:32:52;0.93;;;0.88;;
10311;SDS011;5201;48.776;9.128;2022-10-16T14:35:39;1.13;;;0.57;;
10311;SDS011;5201;48.776;9.128;2022-10-16T14:38:05;6.00;;;0.90;;
10311;SDS011;5201;48.776;9.128;2022-10-16T14:40:45;0.57;;;0.57;;
10311;SDS011;5201;48.776;9.128;2022-10-16T14:46:06;1.67;;;0.90;;
10311;SDS011;5201;48.776;9.128;2022-10-16T14:48:42;1.58;;;0.88;;
10311;SDS011;5201;48.776;9.128;2022-10-16T14:51:14;4.75;;;0.77;;
10311;SDS011;5201;48.776;9.128;2022-10-16T14:53:44;0.70;;;0.70;;
10311;SDS011;5201;48.776;9.128;2022-10-16T14:56:17;2.20;;;1.02;;
10311;SDS011;5201;48.776;9.128;2022-10-16T14:58:49;1.58;;;1.00;;
10311;SDS011;5201;48.776;9.128;2022-10-16T15:01:16;12.18;;;1.08;;
10311;SDS011;5201;48.776;9.128;2022-10-16T15:03:42;1.25;;;0.93;;
10311;SDS011;5201;48.776;9.128;2022-10-16T15:06:11;6.05;;;1.50;;
10311;SDS011;5201;48.776;9.128;2022-10-16T15:08:40;4.03;;;1.60;;
10311;SDS011;5201;48.776;9.128;2022-10-16T15:11:14;2.90;;;1.38;;
10311;SDS011;5201;48.776;9.128;2022-10-16T15:13:43;5.40;;;1.30;;
10311;SDS011;5201;48.776;9.128;2022-10-16T15:16:13;2.15;;;1.33;;
10311;SDS011;5201;48.776;9.128;2022-10-16T15:18:39;2.90;;;1.10;;
10311;SDS011;5201;48.776;9.128;2022-10-16T15:21:05;8.68;;;2.25;;
10311;SDS011;5201;48.776;9.128;2022-10-16T15:23:31;9.20;;;1.52;;
10311;SDS011;5201;48.776;9.128;2022-10-16T15:25:57;0.68;;;0.68;;
10311;SDS011;5201;48.776;9.128;2022-10-16T15:28:23;1.90;;;1.17;;
10311;SDS011;5201;48.776;9.128;2022-10-16T15:30:51;1.45;;;1.15;;
10311;SDS011;5201;48.776;9.128;2022-10-16T15:33:19;4.22;;;1.90;;
10311;SDS011;5201;48.776;9.128;2022-10-16T15:35:48;7.85;;;2.00;;
10311;SDS011;5201;48.776;9.128;2022-10-16T15:38:15;3.25;;;1.70;;
10311;SDS011;5201;48.776;9.128;2022-10-16T15:40:41;3.80;;;1.73;;
10311;SDS011;5201;48.776;9.128;2022-10-16T15:43:07;2.05;;;1.58;;
10311;SDS011;5201;48.776;9.128;2022-10-16T15:45:34;7.78;;;1.42;;
10311;SDS011;5201;48.776;9.128;2022-10-16T15:47:59;3.28;;;1.60;;
10311;SDS011;5201;48.776;9.128;2022-10-16T15:50:25;8.52;;;1.52;;
10311;SDS011;5201;48.776;9.128;2022-10-16T15:52:51;3.30;;;1.48;;
10311;SDS011;5201;48.776;9.128;2022-10-16T15:55:17;5.15;;;1.50;;
10311;SDS011;5201;48.776;9.128;2022-10-16T15:57:43;5.30;;;1.17;;
10311;SDS011;5201;48.776;9.128;2022-10-16T16:00:11;2.63;;;1.30;;
10311;SDS011;5201;48.776;9.128;2022-10-16T16:02:39;4.13;;;1.73;;
10311;SDS011;5201;48.776;9.128;2022-10-16T16:05:05;2.85;;;1.52;;
10311;SDS011;5201;48.776;9.128;2022-10-16T16:07:33;2.25;;;1.30;;
10311;SDS011;5201;48.776;9.128;2022-10-16T16:09:59;5.25;;;1.85;;
10311;SDS011;5201;48.776;9.128;2022-10-16T16:12:25;4.18;;;1.40;;
10311;SDS011;5201;48.776;9.128;2022-10-16T16:14:50;4.20;;;1.63;;
10311;SDS011;5201;48.776;9.128;2022-10-16T16:17:16;7.25;;;1.73;;
10311;SDS011;5201;48.776;9.128;2022-10-16T16:19:42;2.47;;;1.35;;
10311;SDS011;5201;48.776;9.128;2022-10-16T16:22:07;2.60;;;1.30;;
10311;SDS011;5201;48.776;9.128;2022-10-16T16:24:33;7.63;;;3.22;;
10311;SDS011;5201;48.776;9.128;2022-10-16T16:26:58;5.25;;;2.78;;
10311;SDS011;5201;48.776;9.128;2022-10-16T16:29:24;2.63;;;1.77;;
10311;SDS011;5201;48.776;9.128;2022-10-16T16:31:50;2.80;;;1.33;;
10311;SDS011;5201;48.776;9.128;2022-10-16T16:34:21;5.55;;;1.40;;
10311;SDS011;5201;48.776;9.128;2022-10-16T16:36:50;3.45;;;0.95;;
10311;SDS011;5201;48.776;9.128;2022-10-16T16:39:16;4.85;;;1.95;;
10311;SDS011;5201;48.776;9.128;2022-10-16T16:41:42;3.38;;;2.67;;
10311;SDS011;5201;48.776;9.128;2022-10-16T16:44:08;1.50;;;1.30;;
10311;SDS011;5201;48.776;9.128;2022-10-16T16:46:35;5.47;;;1.30;;
10311;SDS011;5201;48.776;9.128;2022-10-16T16:49:01;5.38;;;1.48;;
10311;SDS011;5201;48.776;9.128;2022-10-16T16:51:27;2.13;;;1.20;;
10311;SDS011;5201;48.776;9.128;2022-10-16T16:53:53;4.93;;;1.20;;
10311;SDS011;5201;48.776;9.128;2022-10-16T16:56:19;4.20;;;0.90;;
10311;SDS011;5201;48.776;9.128;2022-10-16T16:58:50;1.23;;;0.90;;
10311;SDS011;5201;48.776;9.128;2022-10-16T17:01:17;2.93;;;1.07;;